createdAt,value
2023-05-24T00:00:53.463Z,7.97
2023-05-24T00:03:24.107Z,7.93
2023-05-24T00:05:54.584Z,7.93
2023-05-24T00:08:24.994Z,7.89
2023-05-24T00:10:55.280Z,7.85
2023-05-24T00:13:25.990Z,7.84
2023-05-24T00:15:56.298Z,7.84
2023-05-24T00:18:26.623Z,7.84
2023-05-24T00:20:58.698Z,7.86
2023-05-24T00:23:29.119Z,7.95
2023-05-24T00:25:59.874Z,7.96
2023-05-24T00:28:31.490Z,7.97
2023-05-24T00:31:02.346Z,7.95
2023-05-24T00:33:32.527Z,7.94
2023-05-24T00:36:02.828Z,7.90
2023-05-24T00:38:33.085Z,7.86
2023-05-24T00:41:03.424Z,7.85
2023-05-24T00:43:33.644Z,7.85
2023-05-24T00:46:22.530Z,7.82
2023-05-24T00:48:53.279Z,7.81
2023-05-24T00:51:30.462Z,7.80
2023-05-24T00:53:58.586Z,7.76
2023-05-24T00:56:28.016Z,7.72
2023-05-24T00:58:58.666Z,7.70
2023-05-24T01:01:31.357Z,7.69
2023-05-24T01:04:00.630Z,7.72
2023-05-24T01:06:36.502Z,7.69
2023-05-24T01:09:32.316Z,7.68
2023-05-24T01:12:26.693Z,7.68
2023-05-24T01:15:23.933Z,7.71
2023-05-24T01:18:11.809Z,7.71
2023-05-24T01:20:45.215Z,7.73
2023-05-24T01:23:34.548Z,7.77
2023-05-24T01:26:54.173Z,7.90
2023-05-24T01:29:29.097Z,7.88
2023-05-24T01:31:59.014Z,7.91
2023-05-24T01:34:27.395Z,7.95
2023-05-24T01:36:55.971Z,7.97
2023-05-24T01:39:29.963Z,8.05
2023-05-24T01:43:02.590Z,8.10
2023-05-24T01:45:56.970Z,8.11
2023-05-24T01:49:03.958Z,8.12
2023-05-24T01:51:54.538Z,8.16
2023-05-24T01:54:33.387Z,8.15
2023-05-24T01:57:09.155Z,8.21
2023-05-24T01:59:44.742Z,8.21
2023-05-24T02:02:14.365Z,8.24
2023-05-24T02:04:44.447Z,8.23
2023-05-24T02:07:14.381Z,8.22
2023-05-24T02:09:44.407Z,8.25
2023-05-24T02:12:18.130Z,8.27
2023-05-24T02:14:51.305Z,8.33
2023-05-24T02:17:21.465Z,8.32
2023-05-24T02:19:51.385Z,8.33
2023-05-24T02:22:22.560Z,8.37
2023-05-24T02:24:53.709Z,8.36
2023-05-24T02:27:22.722Z,8.36
2023-05-24T02:29:53.083Z,8.33
2023-05-24T02:32:23.349Z,8.34
2023-05-24T02:34:53.261Z,8.32
2023-05-24T02:37:23.159Z,8.33
2023-05-24T02:39:53.608Z,8.34
2023-05-24T02:42:23.857Z,8.33
2023-05-24T02:44:54.176Z,8.36
2023-05-24T02:47:23.952Z,8.36
2023-05-24T02:49:55.638Z,8.38
2023-05-24T02:52:27.088Z,8.41
2023-05-24T02:54:56.458Z,8.34
2023-05-24T02:57:26.966Z,8.35
2023-05-24T02:59:56.398Z,8.33
2023-05-24T03:02:28.933Z,8.31
2023-05-24T03:04:59.234Z,8.29
2023-05-24T03:07:27.890Z,8.30
2023-05-24T03:09:56.456Z,8.36
2023-05-24T03:12:25.181Z,8.32
2023-05-24T03:14:53.570Z,8.28
2023-05-24T03:17:22.055Z,8.26
2023-05-24T03:19:51.195Z,8.22
2023-05-24T03:22:20.060Z,8.26
2023-05-24T03:24:50.418Z,8.29
2023-05-24T03:27:19.217Z,8.27
2023-05-24T03:29:47.837Z,8.25
2023-05-24T03:32:16.372Z,8.24
2023-05-24T03:34:44.605Z,8.24
2023-05-24T03:37:14.560Z,8.27
2023-05-24T03:39:43.093Z,8.24
2023-05-24T03:42:17.097Z,8.27
2023-05-24T03:44:44.752Z,8.26
2023-05-24T03:47:13.206Z,8.28
2023-05-24T03:49:41.712Z,8.32
2023-05-24T03:52:09.944Z,8.34
2023-05-24T03:54:38.876Z,8.33
2023-05-24T03:57:07.810Z,8.42
2023-05-24T03:59:35.336Z,8.44
2023-05-24T04:02:03.972Z,8.44
2023-05-24T04:04:32.451Z,8.45
2023-05-24T04:07:00.912Z,8.45
2023-05-24T04:09:29.684Z,8.49
2023-05-24T04:11:57.886Z,8.47
2023-05-24T04:14:26.434Z,8.49
2023-05-24T04:16:57.698Z,8.54
2023-05-24T04:19:28.086Z,8.52
2023-05-24T04:21:58.444Z,8.56
2023-05-24T04:24:28.771Z,8.53
2023-05-24T04:26:59.047Z,8.53
2023-05-24T04:29:29.344Z,8.58
2023-05-24T04:32:00.955Z,8.60
2023-05-24T04:34:33.971Z,8.59
2023-05-24T04:37:04.546Z,8.63
2023-05-24T04:39:34.961Z,8.64
2023-05-24T04:42:10.020Z,8.58
2023-05-24T04:44:43.633Z,8.61
2023-05-24T04:47:15.380Z,8.56
2023-05-24T04:49:45.275Z,8.55
2023-05-24T04:52:13.848Z,8.56
2023-05-24T04:54:42.264Z,8.56
2023-05-24T04:57:10.652Z,8.62
2023-05-24T04:59:39.041Z,8.67
2023-05-24T05:02:07.537Z,8.67
2023-05-24T05:04:35.908Z,8.72
2023-05-24T05:07:04.537Z,8.76
2023-05-24T05:09:33.773Z,8.77
2023-05-24T05:12:02.972Z,8.79
2023-05-24T05:14:33.568Z,8.84
2023-05-24T05:17:03.819Z,8.85
2023-05-24T05:19:34.133Z,8.82
2023-05-24T05:22:04.588Z,8.81
2023-05-24T05:24:34.947Z,8.71
2023-05-24T05:27:06.421Z,8.71
2023-05-24T05:29:36.645Z,8.78
2023-05-24T05:32:07.360Z,8.83
2023-05-24T05:34:40.554Z,8.82
2023-05-24T05:37:11.257Z,8.84
2023-05-24T05:39:41.510Z,8.86
2023-05-24T05:42:14.693Z,8.90
2023-05-24T05:44:45.032Z,8.90
2023-05-24T05:47:15.395Z,8.95
2023-05-24T05:49:45.639Z,8.95
2023-05-24T05:52:15.870Z,8.95
2023-05-24T05:54:46.078Z,8.91
2023-05-24T05:57:16.565Z,8.94
2023-05-24T05:59:46.815Z,8.95
2023-05-24T06:02:19.182Z,8.94
2023-05-24T06:04:51.254Z,9.02
2023-05-24T06:07:21.589Z,9.08
2023-05-24T06:09:52.228Z,9.11
2023-05-24T06:12:22.857Z,9.20
2023-05-24T06:14:53.103Z,9.29
2023-05-24T06:17:24.786Z,9.37
2023-05-24T06:19:56.181Z,9.49
2023-05-24T06:22:29.989Z,9.67
2023-05-24T06:25:00.280Z,9.77
2023-05-24T06:27:30.738Z,9.84
2023-05-24T06:30:01.129Z,9.76
2023-05-24T06:32:31.503Z,9.81
2023-05-24T06:35:01.733Z,9.86
2023-05-24T06:37:31.973Z,9.97
2023-05-24T06:40:02.498Z,10.09
2023-05-24T06:42:32.710Z,10.05
2023-05-24T06:45:04.165Z,9.95
2023-05-24T06:47:34.475Z,9.84
2023-05-24T06:50:05.588Z,9.73
2023-05-24T06:52:36.379Z,9.83
2023-05-24T06:55:07.017Z,9.89
2023-05-24T06:57:37.214Z,9.92
2023-05-24T07:00:12.308Z,9.92
2023-05-24T07:02:42.794Z,9.86
2023-05-24T07:05:13.385Z,9.82
2023-05-24T07:07:44.572Z,9.84
2023-05-24T07:10:15.038Z,9.83
2023-05-24T07:12:43.426Z,9.85
2023-05-24T07:15:11.920Z,9.94
2023-05-24T07:17:42.133Z,10.12
2023-05-24T07:20:12.011Z,10.17
2023-05-24T07:22:42.109Z,10.05
2023-05-24T07:25:11.161Z,10.08
2023-05-24T07:27:39.001Z,9.97
2023-05-24T07:30:19.673Z,10.02
2023-05-24T07:32:59.049Z,9.99
2023-05-24T07:35:29.538Z,10.05
2023-05-24T07:37:58.828Z,10.13
2023-05-24T07:40:27.277Z,10.21
2023-05-24T07:42:56.294Z,10.24
2023-05-24T07:45:24.499Z,10.29
2023-05-24T07:47:54.503Z,10.39
2023-05-24T07:50:27.316Z,10.38
2023-05-24T07:52:57.883Z,10.38
2023-05-24T07:55:28.672Z,10.43
2023-05-24T07:57:57.016Z,10.45
2023-05-24T08:00:30.265Z,10.55
2023-05-24T08:03:00.980Z,10.61
2023-05-24T08:05:31.906Z,10.71
2023-05-24T08:08:02.132Z,10.84
2023-05-24T08:10:31.063Z,10.74
2023-05-24T08:13:01.353Z,10.77
2023-05-24T08:15:29.977Z,10.70
2023-05-24T08:18:00.335Z,10.67
2023-05-24T08:20:30.797Z,10.61
2023-05-24T08:23:01.789Z,10.58
2023-05-24T08:25:32.257Z,10.58
2023-05-24T08:28:02.733Z,10.51
2023-05-24T08:30:33.240Z,10.64
2023-05-24T08:33:03.728Z,10.62
2023-05-24T08:35:36.179Z,10.70
2023-05-24T08:38:07.776Z,10.67
2023-05-24T08:40:38.715Z,10.69
2023-05-24T08:43:12.245Z,10.73
2023-05-24T08:45:45.246Z,10.75
2023-05-24T08:48:18.578Z,10.64
2023-05-24T08:50:50.838Z,10.69
2023-05-24T08:53:23.852Z,10.72
2023-05-24T08:55:56.470Z,10.85
2023-05-24T08:58:27.286Z,10.95
2023-05-24T09:01:02.274Z,10.99
2023-05-24T09:03:37.013Z,11.00
2023-05-24T09:06:11.212Z,10.99
2023-05-24T09:08:44.182Z,10.98
2023-05-24T09:11:18.720Z,11.04
2023-05-24T09:13:50.058Z,11.27
2023-05-24T09:16:20.475Z,11.36
2023-05-24T09:18:50.830Z,11.52
2023-05-24T09:21:22.483Z,11.65
2023-05-24T09:23:54.683Z,11.77
2023-05-24T09:26:25.590Z,11.85
2023-05-24T09:28:57.925Z,11.90
2023-05-24T09:31:36.180Z,11.91
2023-05-24T09:34:16.971Z,12.09
2023-05-24T09:36:48.729Z,12.06
2023-05-24T09:39:21.111Z,12.15
2023-05-24T09:41:57.548Z,12.13
2023-05-24T09:44:30.851Z,12.22
2023-05-24T09:47:09.117Z,12.25
2023-05-24T09:49:40.039Z,12.14
2023-05-24T09:52:15.133Z,12.17
2023-05-24T09:54:48.343Z,11.95
2023-05-24T09:57:19.067Z,11.69
2023-05-24T09:59:52.741Z,11.78
2023-05-24T10:02:26.106Z,11.74
2023-05-24T10:05:03.930Z,11.76
2023-05-24T10:07:36.151Z,11.66
2023-05-24T10:10:07.896Z,11.74
2023-05-24T10:12:43.213Z,11.84
2023-05-24T10:15:13.534Z,12.04
2023-05-24T10:17:43.800Z,12.06
2023-05-24T10:20:14.622Z,12.07
2023-05-24T10:22:51.640Z,12.11
2023-05-24T10:25:27.788Z,12.10
2023-05-24T10:28:06.979Z,12.03
2023-05-24T10:31:03.895Z,12.17
2023-05-24T10:33:40.525Z,12.33
2023-05-24T10:36:16.259Z,12.48
2023-05-24T10:38:51.288Z,12.67
2023-05-24T10:41:22.535Z,12.90
2023-05-24T10:44:08.495Z,12.93
2023-05-24T10:47:11.316Z,12.88
2023-05-24T10:49:57.903Z,12.81
2023-05-24T10:52:36.774Z,12.91
2023-05-24T10:55:11.800Z,12.97
2023-05-24T10:57:42.434Z,13.06
2023-05-24T11:00:35.110Z,13.23
2023-05-24T11:03:11.436Z,12.97
2023-05-24T11:05:55.605Z,12.66
2023-05-24T11:08:36.123Z,12.66
2023-05-24T11:11:26.502Z,12.65
2023-05-24T11:13:58.227Z,12.37
2023-05-24T11:16:41.351Z,12.17
2023-05-24T11:19:25.168Z,12.34
2023-05-24T11:21:59.154Z,12.48
2023-05-24T11:24:29.291Z,12.46
2023-05-24T11:27:02.682Z,12.62
2023-05-24T11:29:31.340Z,12.73
2023-05-24T11:32:08.009Z,12.88
2023-05-24T11:34:40.126Z,12.74
2023-05-24T11:37:13.394Z,12.93
2023-05-24T11:39:49.616Z,13.02
2023-05-24T11:42:23.286Z,13.14
2023-05-24T11:44:55.579Z,13.44
2023-05-24T11:47:25.325Z,13.80
2023-05-24T11:49:53.187Z,14.12
2023-05-24T11:52:21.519Z,14.19
2023-05-24T11:54:51.411Z,14.12
2023-05-24T11:57:46.255Z,14.26
2023-05-24T12:00:28.474Z,13.92
2023-05-24T12:03:08.184Z,14.07
2023-05-24T12:05:38.404Z,14.15
2023-05-24T12:08:12.528Z,13.60
2023-05-24T12:10:47.433Z,13.58
2023-05-24T12:13:27.060Z,13.48
2023-05-24T12:15:58.458Z,13.41
2023-05-24T12:18:29.924Z,13.44
2023-05-24T12:21:00.598Z,13.48
2023-05-24T12:23:32.942Z,13.53
2023-05-24T12:26:04.666Z,13.69
2023-05-24T12:28:39.155Z,13.83
2023-05-24T12:31:10.282Z,14.09
2023-05-24T12:33:40.532Z,14.07
2023-05-24T12:36:10.926Z,14.08
2023-05-24T12:38:40.532Z,14.36
2023-05-24T12:41:13.911Z,14.72
2023-05-24T12:43:44.760Z,14.82
2023-05-24T12:46:15.181Z,15.15
2023-05-24T12:48:45.709Z,15.10
2023-05-24T12:51:15.922Z,15.08
2023-05-24T12:53:46.594Z,14.88
2023-05-24T12:56:16.909Z,14.82
2023-05-24T12:58:47.582Z,14.77
2023-05-24T13:01:18.366Z,14.73
2023-05-24T13:03:48.797Z,14.51
2023-05-24T13:06:19.303Z,14.52
2023-05-24T13:08:49.739Z,14.61
2023-05-24T13:11:20.203Z,14.64
2023-05-24T13:13:50.423Z,14.72
2023-05-24T13:16:20.726Z,14.98
2023-05-24T13:18:51.523Z,15.17
2023-05-24T13:21:22.421Z,15.15
2023-05-24T13:23:52.679Z,15.01
2023-05-24T13:26:22.104Z,14.92
2023-05-24T13:29:11.769Z,14.96
2023-05-24T13:31:41.065Z,15.18
2023-05-24T13:34:11.743Z,15.23
2023-05-24T13:36:43.799Z,15.39
2023-05-24T13:39:16.542Z,15.16
2023-05-24T13:41:47.467Z,15.17
2023-05-24T13:44:18.378Z,15.24
2023-05-24T13:46:48.861Z,15.33
2023-05-24T13:49:19.165Z,15.19
2023-05-24T13:51:49.906Z,15.22
2023-05-24T13:54:20.128Z,14.82
2023-05-24T13:56:51.059Z,14.94
2023-05-24T13:59:21.335Z,14.99
2023-05-24T14:01:51.590Z,15.14
2023-05-24T14:04:21.948Z,15.21
2023-05-24T14:06:52.647Z,15.17
2023-05-24T14:09:23.819Z,15.17
2023-05-24T14:11:54.265Z,15.12
2023-05-24T14:16:57.594Z,15.91
2023-05-24T14:19:27.917Z,16.04
2023-05-24T14:21:58.156Z,16.39
2023-05-24T14:24:28.442Z,16.62
2023-05-24T14:26:58.663Z,16.56
2023-05-24T14:29:28.880Z,16.78
2023-05-24T14:31:59.204Z,17.01
2023-05-24T14:34:29.448Z,16.94
2023-05-24T14:36:59.635Z,16.96
2023-05-24T14:39:30.497Z,17.13
2023-05-24T14:42:01.514Z,17.38
2023-05-24T14:44:31.832Z,17.43
2023-05-24T14:47:02.056Z,17.40
2023-05-24T14:49:32.229Z,17.62
2023-05-24T14:52:03.618Z,17.57
2023-05-24T14:54:33.806Z,17.63
2023-05-24T14:57:04.371Z,17.59
2023-05-24T14:59:34.788Z,17.86
2023-05-24T15:02:05.225Z,18.03
2023-05-24T15:04:35.467Z,18.15
2023-05-24T15:07:06.029Z,18.25
2023-05-24T15:09:36.279Z,17.87
2023-05-24T15:12:11.732Z,17.66
2023-05-24T15:14:42.338Z,18.01
2023-05-24T15:17:12.945Z,18.29
2023-05-24T15:19:43.129Z,18.00
2023-05-24T15:22:13.479Z,18.07
2023-05-24T15:24:43.678Z,18.29
2023-05-24T15:27:13.908Z,18.52
2023-05-24T15:29:44.317Z,18.21
2023-05-24T15:32:14.575Z,17.96
2023-05-24T15:34:44.876Z,17.49
2023-05-24T15:37:13.323Z,17.11
2023-05-24T15:39:41.621Z,17.42
2023-05-24T15:42:14.075Z,17.68
2023-05-24T15:44:41.510Z,18.03
2023-05-24T15:47:10.142Z,18.22
2023-05-24T15:49:39.577Z,18.71
2023-05-24T15:52:10.809Z,19.05
2023-05-24T15:54:41.366Z,19.18
2023-05-24T15:57:11.811Z,19.23
2023-05-24T15:59:41.989Z,19.20
2023-05-24T16:02:12.485Z,19.08
2023-05-24T16:04:42.800Z,18.80
2023-05-24T16:07:13.152Z,18.69
2023-05-24T16:09:46.401Z,18.94
2023-05-24T16:12:18.343Z,19.18
2023-05-24T16:14:48.672Z,19.11
2023-05-24T16:17:19.388Z,18.91
2023-05-24T16:19:49.847Z,18.89
2023-05-24T16:22:20.092Z,18.34
2023-05-24T16:24:50.487Z,18.69
2023-05-24T16:27:20.729Z,18.93
2023-05-24T16:29:51.529Z,18.92
2023-05-24T16:32:21.757Z,18.71
2023-05-24T16:34:56.255Z,18.87
2023-05-24T16:37:27.498Z,18.56
2023-05-24T16:39:57.757Z,17.44
2023-05-24T16:42:28.401Z,17.25
2023-05-24T16:44:59.060Z,17.59
2023-05-24T16:47:30.017Z,17.89
2023-05-24T16:50:01.138Z,18.14
2023-05-24T16:52:30.379Z,18.22
2023-05-24T16:55:00.829Z,18.81
2023-05-24T16:57:34.573Z,18.78
2023-05-24T17:00:07.957Z,18.96
2023-05-24T17:02:38.087Z,19.24
2023-05-24T17:05:07.456Z,19.35
2023-05-24T17:07:37.138Z,19.54
2023-05-24T17:10:07.531Z,19.69
2023-05-24T17:12:36.196Z,20.07
2023-05-24T17:15:06.317Z,19.92
2023-05-24T17:17:34.113Z,19.73
2023-05-24T17:20:02.742Z,19.96
2023-05-24T17:22:31.463Z,19.66
2023-05-24T17:25:00.032Z,19.63
2023-05-24T17:27:28.446Z,19.48
2023-05-24T17:29:57.584Z,18.22
2023-05-24T17:32:25.954Z,17.49
2023-05-24T17:34:54.449Z,17.08
2023-05-24T17:37:23.352Z,16.44
2023-05-24T17:39:54.532Z,16.02
2023-05-24T17:42:25.543Z,15.75
2023-05-24T17:44:55.376Z,15.61
2023-05-24T17:47:25.158Z,15.42
2023-05-24T17:49:54.015Z,15.21
2023-05-24T17:52:31.647Z,14.88
2023-05-24T17:55:13.587Z,14.77
2023-05-24T17:57:54.397Z,14.84
2023-05-24T18:00:34.747Z,15.02
2023-05-24T18:03:15.836Z,15.54
2023-05-24T18:05:47.471Z,15.95
2023-05-24T18:08:15.905Z,15.93
2023-05-24T18:10:44.302Z,15.79
2023-05-24T18:13:13.288Z,15.42
2023-05-24T18:15:41.347Z,15.07
2023-05-24T18:18:09.715Z,14.75
2023-05-24T18:20:38.187Z,14.45
2023-05-24T18:23:06.459Z,14.23
2023-05-24T18:25:35.719Z,14.04
2023-05-24T18:28:03.425Z,13.79
2023-05-24T18:30:31.706Z,13.59
2023-05-24T18:33:05.370Z,13.41
2023-05-24T18:35:38.477Z,13.28
2023-05-24T18:38:08.818Z,13.07
2023-05-24T18:40:39.143Z,12.91
2023-05-24T18:43:09.442Z,12.83
2023-05-24T18:45:39.692Z,12.69
2023-05-24T18:48:09.894Z,12.58
2023-05-24T18:50:40.136Z,12.46
2023-05-24T18:53:10.443Z,12.36
2023-05-24T18:55:41.041Z,12.24
2023-05-24T18:58:11.416Z,12.10
2023-05-24T19:00:41.842Z,11.98
2023-05-24T19:03:13.482Z,11.89
2023-05-24T19:05:44.486Z,11.75
2023-05-24T19:08:15.037Z,11.54
2023-05-24T19:10:45.395Z,11.34
2023-05-24T19:13:15.964Z,11.22
2023-05-24T19:15:46.407Z,11.08
2023-05-24T19:18:16.801Z,10.95
2023-05-24T19:20:47.386Z,10.83
2023-05-24T19:23:17.795Z,10.73
2023-05-24T19:25:50.370Z,10.65
2023-05-24T19:28:20.837Z,10.48
2023-05-24T19:30:51.180Z,10.36
2023-05-24T19:33:19.723Z,10.31
2023-05-24T19:35:48.813Z,10.23
2023-05-24T19:38:18.103Z,10.13
2023-05-24T19:40:46.173Z,10.08
2023-05-24T19:43:14.433Z,10.05
2023-05-24T19:45:43.071Z,9.94
2023-05-24T19:48:11.327Z,9.88
2023-05-24T19:50:40.819Z,9.78
2023-05-24T19:53:09.180Z,9.69
2023-05-24T19:55:37.588Z,9.60
2023-05-24T19:58:06.070Z,9.52
2023-05-24T20:00:34.858Z,9.46
2023-05-24T20:03:03.200Z,9.39
2023-05-24T20:05:31.632Z,9.36
2023-05-24T20:08:00.071Z,9.41
2023-05-24T20:10:30.331Z,9.31
2023-05-24T20:13:00.226Z,9.17
2023-05-24T20:15:28.949Z,9.06
2023-05-24T20:17:59.728Z,9.02
2023-05-24T20:20:30.103Z,9.00
2023-05-24T20:23:00.541Z,9.02
2023-05-24T20:25:30.763Z,8.99
2023-05-24T20:28:01.086Z,8.91
2023-05-24T20:30:31.550Z,8.81
2023-05-24T20:33:02.175Z,8.74
2023-05-24T20:35:32.430Z,8.65
2023-05-24T20:38:03.012Z,8.58
2023-05-24T20:40:33.350Z,8.46
2023-05-24T20:43:04.239Z,8.30
2023-05-24T20:45:35.131Z,8.21
2023-05-24T20:48:03.130Z,8.18
2023-05-24T20:50:33.421Z,8.13
2023-05-24T20:53:02.422Z,8.10
2023-05-24T20:55:32.665Z,8.08
2023-05-24T20:58:03.243Z,8.05
2023-05-24T21:00:33.539Z,8.02
2023-05-24T21:03:04.009Z,8.06
2023-05-24T21:05:36.585Z,7.98
2023-05-24T21:08:06.563Z,7.87
2023-05-24T21:10:36.102Z,7.81
2023-05-24T21:13:04.491Z,7.79
2023-05-24T21:15:32.180Z,7.76
2023-05-24T21:18:00.761Z,7.75
2023-05-24T21:20:29.352Z,7.69
2023-05-24T21:22:57.778Z,7.63
2023-05-24T21:25:27.334Z,7.59
2023-05-24T21:27:56.324Z,7.58
2023-05-24T21:30:24.561Z,7.51
2023-05-24T21:32:52.845Z,7.53
2023-05-24T21:35:21.327Z,7.49
2023-05-24T21:37:50.027Z,7.43
2023-05-24T21:40:18.556Z,7.36
2023-05-24T21:42:47.153Z,7.30
2023-05-24T21:45:16.656Z,7.21
2023-05-24T21:47:45.268Z,7.14
2023-05-24T21:50:15.765Z,7.11
2023-05-24T21:52:43.991Z,7.12
2023-05-24T21:55:12.438Z,7.10
2023-05-24T21:57:40.924Z,7.06
2023-05-24T22:00:12.782Z,6.99
2023-05-24T22:02:43.243Z,6.93
2023-05-24T22:05:11.845Z,6.91
2023-05-24T22:07:40.134Z,6.86
2023-05-24T22:10:09.334Z,6.79
2023-05-24T22:12:37.045Z,6.76
2023-05-24T22:15:06.768Z,6.79
2023-05-24T22:17:37.132Z,6.83
2023-05-24T22:20:07.849Z,6.85
2023-05-24T22:22:48.998Z,6.76
2023-05-24T22:25:22.335Z,6.72
2023-05-24T22:27:51.820Z,6.73
2023-05-24T22:30:19.762Z,6.70
2023-05-24T22:32:47.724Z,6.68
2023-05-24T22:35:16.434Z,6.67
2023-05-24T22:37:44.718Z,6.61
2023-05-24T22:40:13.831Z,6.56
2023-05-24T22:42:41.666Z,6.57
2023-05-24T22:45:11.067Z,6.53
2023-05-24T22:47:41.309Z,6.55
2023-05-24T22:50:10.264Z,6.53
2023-05-24T22:52:42.603Z,6.51
2023-05-24T22:55:13.035Z,6.48
2023-05-24T22:57:41.825Z,6.43
2023-05-24T23:00:12.332Z,6.37
2023-05-24T23:02:42.769Z,6.36
2023-05-24T23:05:11.721Z,6.32
2023-05-24T23:07:41.542Z,6.25
2023-05-24T23:10:11.915Z,6.24
2023-05-24T23:12:42.451Z,6.20
2023-05-24T23:15:16.947Z,6.19
2023-05-24T23:17:48.379Z,6.20
2023-05-24T23:20:16.382Z,6.17
2023-05-24T23:22:44.831Z,6.14
2023-05-24T23:25:14.379Z,6.10
2023-05-24T23:27:43.053Z,6.08
2023-05-24T23:30:13.383Z,6.03
2023-05-24T23:32:42.089Z,6.02
2023-05-24T23:35:11.309Z,5.97
2023-05-24T23:37:39.624Z,5.91
2023-05-24T23:40:09.465Z,5.88
2023-05-24T23:42:38.054Z,5.88
2023-05-24T23:45:07.433Z,5.82
2023-05-24T23:47:35.106Z,5.84
2023-05-24T23:50:06.223Z,5.83
2023-05-24T23:52:35.527Z,5.79
2023-05-24T23:55:06.521Z,5.70
2023-05-24T23:57:35.893Z,5.62
